Time;durP1;ratioP1;P1;durP2;ratioP2;P2;SDS_P1;SDS_P2;PMS_P1;PMS_P2;Temp;Humidity;BMP_temperature;BMP_pressure;BME280_temperature;BME280_humidity;BME280_pressure;Samples;Min_cycle;Max_cycle;Signal;HPM_P1;HPM_P2
2023/05/10 00:01:24;;;;;;;15.80;14.25;;;12.90;99.90;;;;;;5005519;28;20042;-68
2023/05/10 00:03:50;;;;;;;16.85;15.15;;;12.80;99.90;;;;;;4980707;28;20038;-68
2023/05/10 00:06:16;;;;;;;18.75;14.98;;;12.80;99.90;;;;;;4996034;28;20046;-68
2023/05/10 00:08:41;;;;;;;17.45;15.65;;;12.90;99.90;;;;;;4987105;28;20050;-68
2023/05/10 00:11:07;;;;;;;24.67;17.52;;;12.80;99.90;;;;;;4999227;28;20486;-68
2023/05/10 00:13:33;;;;;;;16.17;14.38;;;12.80;99.90;;;;;;4982627;28;20081;-68
2023/05/10 00:15:59;;;;;;;16.98;14.50;;;12.80;99.90;;;;;;4984966;28;20042;-68
2023/05/10 00:18:24;;;;;;;18.23;13.23;;;12.80;99.90;;;;;;4987639;28;20097;-68
2023/05/10 00:20:50;;;;;;;25.40;15.50;;;12.80;99.90;;;;;;4976236;28;20062;-68
2023/05/10 00:23:16;;;;;;;16.20;13.27;;;12.80;99.90;;;;;;4982103;28;20039;-67
2023/05/10 00:25:42;;;;;;;16.05;13.18;;;12.80;99.90;;;;;;4985729;28;20035;-68
2023/05/10 00:28:07;;;;;;;15.55;13.90;;;12.70;99.90;;;;;;4986714;28;20473;-68
2023/05/10 00:30:33;;;;;;;16.55;13.57;;;12.70;99.90;;;;;;4977570;28;20034;-68
2023/05/10 00:32:59;;;;;;;16.38;13.18;;;12.70;99.90;;;;;;4980485;28;20046;-68
2023/05/10 00:35:25;;;;;;;21.35;13.70;;;12.70;99.90;;;;;;4984152;28;20049;-68
2023/05/10 00:37:51;;;;;;;16.70;14.40;;;12.70;99.90;;;;;;4982966;28;20507;-68
2023/05/10 00:40:17;;;;;;;17.30;14.23;;;12.70;99.90;;;;;;4976406;28;20093;-67
2023/05/10 00:42:43;;;;;;;18.23;14.13;;;12.70;99.90;;;;;;4981117;28;20034;-67
2023/05/10 00:45:09;;;;;;;17.08;13.77;;;12.70;99.90;;;;;;4985557;28;20046;-68
2023/05/10 00:47:35;;;;;;;21.05;15.25;;;12.70;99.90;;;;;;5000475;28;20046;-68
2023/05/10 00:50:01;;;;;;;16.33;13.48;;;12.70;99.90;;;;;;4986020;28;20456;-68
2023/05/10 00:52:28;;;;;;;19.10;13.57;;;12.70;99.90;;;;;;4981798;28;20049;-68
2023/05/10 00:54:54;;;;;;;16.52;14.55;;;12.70;99.90;;;;;;4984717;28;20030;-68
2023/05/10 00:57:21;;;;;;;19.15;14.23;;;12.70;99.90;;;;;;4980505;28;20030;-68
2023/05/10 00:59:47;;;;;;;20.70;15.23;;;12.70;99.90;;;;;;4993389;28;20054;-68
2023/05/10 01:02:13;;;;;;;22.42;14.60;;;12.70;99.90;;;;;;4980807;28;20514;-67
2023/05/10 01:04:39;;;;;;;34.00;16.67;;;12.70;99.90;;;;;;4983898;28;20038;-68
2023/05/10 01:07:05;;;;;;;32.92;16.88;;;12.70;99.90;;;;;;4978537;28;20038;-68
2023/05/10 01:09:31;;;;;;;16.73;13.80;;;12.60;99.90;;;;;;4979155;28;20390;-68
2023/05/10 01:11:58;;;;;;;26.50;16.17;;;12.70;99.90;;;;;;4982050;28;20047;-68
2023/05/10 01:14:25;;;;;;;29.25;16.35;;;12.70;99.90;;;;;;4983320;28;20042;-68
2023/05/10 01:16:53;;;;;;;20.38;14.18;;;12.70;99.90;;;;;;4985031;28;20150;-68
2023/05/10 01:19:24;;;;;;;22.25;14.30;;;12.70;99.90;;;;;;4982826;28;20046;-68
2023/05/10 01:22:28;;;;;;;21.20;14.63;;;12.70;99.90;;;;;;4982327;28;20431;-68
2023/05/10 01:25:15;;;;;;;20.00;14.07;;;12.60;99.90;;;;;;4982442;28;20133;-68
2023/05/10 01:27:44;;;;;;;20.33;12.88;;;12.60;99.90;;;;;;4980949;28;20038;-68
2023/05/10 01:30:44;;;;;;;18.35;13.27;;;12.60;99.90;;;;;;4987605;28;20036;-68
2023/05/10 01:33:11;;;;;;;27.27;13.82;;;12.60;99.90;;;;;;4997098;28;20042;-68
2023/05/10 01:35:47;;;;;;;28.48;15.02;;;12.60;99.90;;;;;;4987965;28;20058;-68
2023/05/10 01:38:32;;;;;;;19.65;14.05;;;12.60;99.90;;;;;;4977921;28;20047;-67
2023/05/10 01:41:29;;;;;;;18.65;13.10;;;12.60;99.90;;;;;;4983178;28;20054;-67
2023/05/10 01:44:21;;;;;;;18.35;13.07;;;12.60;99.90;;;;;;4979062;28;20629;-67
2023/05/10 01:46:57;;;;;;;15.88;12.38;;;12.60;99.90;;;;;;4980755;28;20361;-67
2023/05/10 01:49:32;;;;;;;20.83;13.48;;;12.60;99.90;;;;;;5002327;28;20389;-67
2023/05/10 01:52:08;;;;;;;15.07;11.85;;;12.60;99.90;;;;;;4985214;28;20042;-67
2023/05/10 01:54:37;;;;;;;18.98;13.35;;;12.60;99.90;;;;;;4980169;28;20070;-67
2023/05/10 01:57:08;;;;;;;18.02;13.40;;;12.60;99.90;;;;;;4983582;28;20042;-68
2023/05/10 01:59:36;;;;;;;18.65;13.32;;;12.60;99.90;;;;;;4985787;28;20755;-68
2023/05/10 02:02:04;;;;;;;18.77;13.43;;;12.60;99.90;;;;;;4979886;28;20075;-68
2023/05/10 02:04:31;;;;;;;16.92;12.32;;;12.60;99.90;;;;;;4977407;28;20046;-68
2023/05/10 02:06:57;;;;;;;16.52;12.85;;;12.60;99.90;;;;;;4984554;28;20072;-68
2023/05/10 02:09:25;;;;;;;22.85;13.40;;;12.60;99.90;;;;;;4980424;28;20096;-68
2023/05/10 02:11:51;;;;;;;15.63;12.80;;;12.50;99.90;;;;;;4981313;28;20089;-68
2023/05/10 02:14:19;;;;;;;16.98;12.63;;;12.60;99.90;;;;;;4977961;28;20122;-68
2023/05/10 02:16:46;;;;;;;18.15;13.15;;;12.50;99.90;;;;;;4975045;28;20479;-68
2023/05/10 02:19:13;;;;;;;17.88;13.18;;;12.60;99.90;;;;;;4980030;28;20053;-68
2023/05/10 02:21:41;;;;;;;15.68;12.00;;;12.60;99.90;;;;;;4985056;28;20609;-68
2023/05/10 02:24:08;;;;;;;18.10;12.32;;;12.50;99.90;;;;;;4977406;28;20042;-68
2023/05/10 02:26:36;;;;;;;16.98;12.25;;;12.60;99.90;;;;;;4975378;28;20141;-68
2023/05/10 02:29:03;;;;;;;20.98;13.32;;;12.50;99.90;;;;;;4983291;28;20101;-68
2023/05/10 02:31:33;;;;;;;20.63;13.52;;;12.50;99.90;;;;;;4986487;28;20062;-68
2023/05/10 02:34:00;;;;;;;25.08;14.10;;;12.50;99.90;;;;;;4985331;28;20514;-68
2023/05/10 02:36:27;;;;;;;21.55;12.90;;;12.50;99.90;;;;;;4981383;28;20130;-68
2023/05/10 02:38:54;;;;;;;17.20;12.70;;;12.50;99.90;;;;;;4987984;28;20054;-68
2023/05/10 02:41:22;;;;;;;17.05;12.43;;;12.50;99.90;;;;;;4990552;28;20407;-68
2023/05/10 02:43:55;;;;;;;19.83;12.52;;;12.50;99.90;;;;;;4981597;28;20038;-68
2023/05/10 02:46:21;;;;;;;24.23;13.82;;;12.50;99.90;;;;;;4977500;28;20538;-68
2023/05/10 02:48:47;;;;;;;19.85;12.70;;;12.50;99.90;;;;;;4986935;28;20125;-68
2023/05/10 02:51:17;;;;;;;13.10;11.15;;;12.50;99.90;;;;;;4983968;28;20042;-68
2023/05/10 02:53:45;;;;;;;18.00;12.02;;;12.50;99.90;;;;;;4983512;28;20050;-67
2023/05/10 02:56:25;;;;;;;25.15;13.70;;;12.50;99.90;;;;;;4979677;28;20078;-68
2023/05/10 02:58:50;;;;;;;15.25;11.70;;;12.50;99.90;;;;;;5003507;28;20390;-68
2023/05/10 03:01:16;;;;;;;13.75;10.52;;;12.50;99.90;;;;;;4980304;28;20038;-68
2023/05/10 03:03:42;;;;;;;14.02;11.55;;;12.50;99.90;;;;;;4984122;28;20066;-68
2023/05/10 03:06:07;;;;;;;15.73;11.20;;;12.50;99.90;;;;;;4980672;28;20122;-68
2023/05/10 03:08:33;;;;;;;13.38;11.07;;;12.50;99.90;;;;;;4986352;28;20306;-68
2023/05/10 03:11:24;;;;;;;11.95;10.75;;;12.40;99.90;;;;;;4995869;28;20051;-68
2023/05/10 03:14:09;;;;;;;12.55;10.15;;;12.40;99.90;;;;;;4998603;28;20524;-69
2023/05/10 03:17:01;;;;;;;13.82;10.30;;;12.40;99.90;;;;;;4981612;28;20561;-69
2023/05/10 03:19:39;;;;;;;11.45;10.25;;;12.40;99.90;;;;;;4980285;28;20073;-69
2023/05/10 03:22:10;;;;;;;11.20;10.10;;;12.40;99.90;;;;;;4986482;28;20487;-69
2023/05/10 03:24:38;;;;;;;16.15;11.15;;;12.40;99.90;;;;;;4986115;28;20153;-69
2023/05/10 03:27:05;;;;;;;14.18;9.55;;;12.40;99.90;;;;;;4987012;28;20150;-69
2023/05/10 03:29:32;;;;;;;13.95;11.07;;;12.40;99.90;;;;;;4983849;28;20049;-69
2023/05/10 03:31:59;;;;;;;12.98;11.30;;;12.30;99.90;;;;;;4976497;28;20525;-69
2023/05/10 03:34:25;;;;;;;14.45;11.18;;;12.40;99.90;;;;;;4986392;28;20050;-69
2023/05/10 03:36:51;;;;;;;13.73;11.05;;;12.40;99.90;;;;;;4984954;28;20042;-69
2023/05/10 03:39:17;;;;;;;12.57;10.93;;;12.40;99.90;;;;;;4983687;28;20074;-69
2023/05/10 03:41:42;;;;;;;15.95;12.18;;;12.30;99.90;;;;;;4995258;28;20113;-69
2023/05/10 03:44:08;;;;;;;18.83;12.52;;;12.40;99.90;;;;;;4984484;28;20038;-69
2023/05/10 03:46:34;;;;;;;17.25;12.10;;;12.30;99.90;;;;;;4997703;28;20123;-69
2023/05/10 03:48:59;;;;;;;14.13;12.32;;;12.30;99.90;;;;;;4982582;28;20026;-69
2023/05/10 03:51:28;;;;;;;17.48;14.13;;;12.30;99.90;;;;;;4979387;28;20038;-69
2023/05/10 03:53:55;;;;;;;16.50;12.77;;;12.30;99.90;;;;;;4982085;28;20052;-69
2023/05/10 03:56:21;;;;;;;16.10;12.38;;;12.30;99.90;;;;;;4985125;28;20421;-69
2023/05/10 03:58:47;;;;;;;14.07;12.05;;;12.20;99.90;;;;;;4983873;28;20054;-69
2023/05/10 04:01:12;;;;;;;15.68;11.82;;;12.30;99.90;;;;;;4979412;28;20093;-69
2023/05/10 04:03:38;;;;;;;19.95;13.23;;;12.30;99.90;;;;;;4982270;28;20030;-69
2023/05/10 04:06:05;;;;;;;14.05;12.35;;;12.30;99.90;;;;;;4984306;28;20038;-69
2023/05/10 04:08:31;;;;;;;11.73;10.52;;;12.30;99.90;;;;;;4986117;28;20494;-69
2023/05/10 04:11:10;;;;;;;13.23;11.02;;;12.30;99.90;;;;;;4990525;28;20136;-69
2023/05/10 04:13:37;;;;;;;14.50;12.52;;;12.30;99.90;;;;;;4987992;28;20129;-69
2023/05/10 04:16:03;;;;;;;15.57;12.05;;;12.30;99.90;;;;;;4986507;28;20042;-69
2023/05/10 04:18:29;;;;;;;16.40;12.07;;;12.30;99.90;;;;;;4979324;28;20034;-69
2023/05/10 04:20:54;;;;;;;17.15;12.18;;;12.30;99.90;;;;;;4985473;28;20516;-68
2023/05/10 04:23:20;;;;;;;13.60;10.93;;;12.30;99.90;;;;;;4984367;28;20531;-68
2023/05/10 04:25:46;;;;;;;14.27;10.45;;;12.30;99.90;;;;;;4987714;28;20038;-68
2023/05/10 04:28:11;;;;;;;16.58;11.88;;;12.30;99.90;;;;;;4996252;28;20564;-68
2023/05/10 04:30:37;;;;;;;16.15;10.52;;;12.30;99.90;;;;;;4979276;28;20144;-68
2023/05/10 04:33:03;;;;;;;17.95;11.63;;;12.30;99.90;;;;;;4979997;28;20108;-68
2023/05/10 04:35:29;;;;;;;15.63;11.63;;;12.30;99.90;;;;;;4984530;28;20888;-68
2023/05/10 04:37:54;;;;;;;13.43;10.70;;;12.30;99.90;;;;;;4984594;28;20067;-69
2023/05/10 04:40:20;;;;;;;14.20;11.18;;;12.30;99.90;;;;;;5003776;28;20070;-68
2023/05/10 04:42:46;;;;;;;13.32;11.48;;;12.30;99.90;;;;;;4990901;28;20077;-68
2023/05/10 04:45:14;;;;;;;14.45;10.93;;;12.30;99.90;;;;;;4989975;28;20077;-68
2023/05/10 04:47:40;;;;;;;16.45;11.98;;;12.30;99.90;;;;;;4989084;28;20043;-68
2023/05/10 04:50:07;;;;;;;16.27;11.32;;;12.30;99.90;;;;;;4989195;28;20088;-68
2023/05/10 04:52:33;;;;;;;20.38;12.93;;;12.30;99.90;;;;;;4987339;28;20054;-68
2023/05/10 04:54:58;;;;;;;16.38;11.85;;;12.30;99.90;;;;;;4988935;28;20038;-68
2023/05/10 04:57:24;;;;;;;16.77;10.95;;;12.40;99.90;;;;;;4996261;28;20074;-68
2023/05/10 04:59:50;;;;;;;15.80;10.90;;;12.40;99.90;;;;;;4981310;28;20049;-68
2023/05/10 05:02:15;;;;;;;18.15;11.43;;;12.40;99.90;;;;;;4984692;28;20370;-68
2023/05/10 05:04:41;;;;;;;14.07;10.68;;;12.40;99.90;;;;;;4985462;28;20533;-68
2023/05/10 05:07:07;;;;;;;14.88;10.98;;;12.40;99.90;;;;;;4978519;28;20135;-68
2023/05/10 05:09:32;;;;;;;13.13;9.88;;;12.50;99.90;;;;;;4988579;28;20034;-68
2023/05/10 05:11:59;;;;;;;12.63;9.73;;;12.50;99.90;;;;;;4983932;28;20508;-68
2023/05/10 05:14:25;;;;;;;11.13;9.40;;;12.50;99.90;;;;;;4997695;28;20054;-68
2023/05/10 05:16:54;;;;;;;14.82;9.38;;;12.50;99.90;;;;;;4976163;28;20886;-68
2023/05/10 05:19:19;;;;;;;12.38;9.80;;;12.50;99.90;;;;;;4996708;28;20490;-68
2023/05/10 05:21:45;;;;;;;15.93;10.10;;;12.50;99.90;;;;;;4982130;28;20034;-68
2023/05/10 05:24:12;;;;;;;13.43;9.68;;;12.50;99.90;;;;;;4984933;28;20041;-68
2023/05/10 05:26:38;;;;;;;14.45;9.88;;;12.60;99.90;;;;;;4974312;28;20136;-68
2023/05/10 05:29:04;;;;;;;14.00;10.00;;;12.60;99.90;;;;;;4989023;28;20081;-68
2023/05/10 05:31:30;;;;;;;11.50;9.18;;;12.60;99.90;;;;;;4986207;28;20054;-69
2023/05/10 05:33:55;;;;;;;13.52;10.68;;;12.60;99.90;;;;;;4980416;28;20050;-69
2023/05/10 05:36:22;;;;;;;11.73;9.70;;;12.60;99.90;;;;;;4987161;28;20052;-69
2023/05/10 05:38:47;;;;;;;14.07;10.55;;;12.60;99.90;;;;;;4981598;28;20142;-69
2023/05/10 05:41:13;;;;;;;13.60;9.82;;;12.60;99.90;;;;;;4987709;28;20066;-69
2023/05/10 05:43:39;;;;;;;10.10;8.65;;;12.60;99.90;;;;;;4978284;28;20050;-69
2023/05/10 05:46:05;;;;;;;11.60;9.02;;;12.60;99.90;;;;;;4977807;28;20423;-69
2023/05/10 05:48:31;;;;;;;11.52;9.68;;;12.50;99.90;;;;;;4983603;28;20053;-69
2023/05/10 05:50:57;;;;;;;11.85;8.98;;;12.50;99.90;;;;;;4983792;28;20086;-70
2023/05/10 05:53:23;;;;;;;12.50;9.55;;;12.50;99.90;;;;;;4983352;28;20509;-69
2023/05/10 05:55:57;;;;;;;15.23;8.82;;;12.60;99.90;;;;;;5001417;28;20042;-70
2023/05/10 05:58:24;;;;;;;12.40;8.85;;;12.60;99.90;;;;;;4985393;28;20450;-70
2023/05/10 06:00:51;;;;;;;11.82;8.73;;;12.50;99.90;;;;;;4985256;28;20039;-70
2023/05/10 06:03:17;;;;;;;11.57;8.98;;;12.50;99.90;;;;;;4979736;28;20049;-70
2023/05/10 06:05:44;;;;;;;11.80;8.85;;;12.50;99.90;;;;;;5000449;28;20506;-70
2023/05/10 06:08:09;;;;;;;10.60;8.45;;;12.50;99.90;;;;;;4986954;28;20034;-70
2023/05/10 06:10:36;;;;;;;15.13;9.48;;;12.60;99.90;;;;;;4986852;28;20035;-70
2023/05/10 06:13:01;;;;;;;13.75;9.05;;;12.60;99.90;;;;;;4979487;28;20644;-70
2023/05/10 06:15:27;;;;;;;14.63;9.82;;;12.70;99.90;;;;;;4982462;28;20045;-70
2023/05/10 06:17:53;;;;;;;11.00;8.77;;;12.60;99.90;;;;;;4977854;28;20038;-70
2023/05/10 06:20:19;;;;;;;13.02;9.32;;;12.60;99.90;;;;;;4980908;28;20385;-70
2023/05/10 06:22:44;;;;;;;14.90;9.40;;;12.70;99.90;;;;;;4982817;28;20034;-70
2023/05/10 06:25:11;;;;;;;16.13;9.82;;;12.60;99.90;;;;;;4984883;28;20043;-70
2023/05/10 06:27:37;;;;;;;12.57;9.68;;;12.70;99.90;;;;;;4978221;28;20053;-70
2023/05/10 06:30:03;;;;;;;12.35;9.27;;;12.80;99.90;;;;;;4982453;28;20072;-70
2023/05/10 06:32:29;;;;;;;12.73;8.90;;;12.80;99.90;;;;;;4976248;28;20046;-70
2023/05/10 06:34:55;;;;;;;10.70;8.05;;;12.80;99.90;;;;;;5000821;28;20038;-70
2023/05/10 06:37:20;;;;;;;11.50;9.45;;;12.80;99.90;;;;;;4982047;28;20561;-70
2023/05/10 06:39:46;;;;;;;11.80;8.73;;;12.80;99.90;;;;;;5000250;28;20054;-70
2023/05/10 06:42:12;;;;;;;10.30;8.98;;;12.80;99.90;;;;;;4988844;28;20059;-70
2023/05/10 06:44:37;;;;;;;11.25;8.95;;;12.80;99.90;;;;;;4979712;28;20569;-71
2023/05/10 06:47:03;;;;;;;13.77;9.30;;;12.80;99.90;;;;;;4978591;28;20035;-71
2023/05/10 06:49:29;;;;;;;10.68;9.52;;;12.90;99.90;;;;;;4992477;28;20294;-71
2023/05/10 06:51:58;;;;;;;9.80;8.80;;;13.00;99.90;;;;;;4989212;28;20153;-71
2023/05/10 06:54:23;;;;;;;10.50;8.77;;;13.00;99.90;;;;;;4999133;28;20106;-71
2023/05/10 06:56:49;;;;;;;9.50;8.50;;;12.90;99.90;;;;;;4986367;28;20153;-70
2023/05/10 06:59:16;;;;;;;12.95;9.70;;;13.00;99.90;;;;;;4985045;28;20042;-70
2023/05/10 07:01:42;;;;;;;12.10;9.32;;;13.10;99.90;;;;;;5000233;28;20038;-70
2023/05/10 07:04:08;;;;;;;32.35;28.42;;;13.10;99.90;;;;;;5001293;28;20038;-71
2023/05/10 07:06:34;;;;;;;14.88;12.63;;;13.20;99.90;;;;;;4989460;28;20034;-71
2023/05/10 07:09:00;;;;;;;11.35;9.95;;;13.20;99.90;;;;;;4988992;28;20547;-70
2023/05/10 07:11:26;;;;;;;10.50;9.40;;;13.20;99.90;;;;;;4985170;28;20082;-71
2023/05/10 07:13:55;;;;;;;11.63;9.13;;;13.20;99.90;;;;;;5003034;28;20057;-71
2023/05/10 07:16:21;;;;;;;10.77;8.90;;;13.30;99.90;;;;;;4988293;28;20130;-71
2023/05/10 07:18:47;;;;;;;11.68;9.40;;;13.30;99.90;;;;;;4987172;28;20125;-71
2023/05/10 07:21:12;;;;;;;11.88;9.05;;;13.30;99.90;;;;;;4987839;28;20121;-71
2023/05/10 07:23:38;;;;;;;11.13;8.70;;;13.30;99.90;;;;;;5002990;28;20035;-71
2023/05/10 07:26:04;;;;;;;19.88;17.50;;;13.40;99.90;;;;;;4991553;28;20073;-71
2023/05/10 07:28:30;;;;;;;11.75;10.57;;;13.40;99.90;;;;;;4991882;28;20065;-71
2023/05/10 07:30:55;;;;;;;10.52;7.50;;;13.40;99.90;;;;;;4983732;28;20046;-71
2023/05/10 07:33:21;;;;;;;8.65;7.63;;;13.40;99.90;;;;;;4984319;28;20129;-71
2023/05/10 07:35:47;;;;;;;11.23;7.22;;;13.40;99.90;;;;;;4985192;28;20109;-71
2023/05/10 07:38:13;;;;;;;10.48;6.93;;;13.50;99.90;;;;;;4980021;28;20054;-72
2023/05/10 07:40:39;;;;;;;7.88;6.25;;;13.50;99.90;;;;;;4974068;28;20121;-71
2023/05/10 07:43:05;;;;;;;9.43;6.35;;;13.50;99.90;;;;;;4986804;28;20502;-71
2023/05/10 07:45:31;;;;;;;9.10;6.30;;;13.50;99.90;;;;;;5002488;28;20446;-71
2023/05/10 07:47:57;;;;;;;8.93;5.70;;;13.50;99.90;;;;;;5000584;28;20264;-71
2023/05/10 07:50:22;;;;;;;11.30;5.50;;;13.50;99.90;;;;;;5002873;28;20088;-71
2023/05/10 07:52:48;;;;;;;8.68;5.45;;;13.40;99.90;;;;;;4983221;28;20034;-71
2023/05/10 07:55:14;;;;;;;6.53;5.82;;;13.50;99.90;;;;;;4983315;28;20042;-71
2023/05/10 07:57:42;;;;;;;7.28;5.57;;;13.40;99.90;;;;;;4988070;28;20035;-71
2023/05/10 08:00:08;;;;;;;6.90;4.93;;;13.50;99.90;;;;;;5002446;28;20132;-71
2023/05/10 08:02:35;;;;;;;10.88;6.85;;;13.50;99.90;;;;;;4984198;28;20038;-71
2023/05/10 08:05:01;;;;;;;7.25;4.90;;;13.60;99.90;;;;;;4998926;28;20038;-72
2023/05/10 08:07:27;;;;;;;9.55;5.97;;;13.70;99.90;;;;;;5004169;28;20046;-72
2023/05/10 08:09:52;;;;;;;9.73;6.30;;;13.70;99.90;;;;;;5005369;28;20406;-72
2023/05/10 08:12:18;;;;;;;8.45;6.55;;;13.80;99.90;;;;;;5006502;28;20049;-72
2023/05/10 08:14:44;;;;;;;9.50;6.05;;;13.80;99.90;;;;;;5005663;28;20463;-72
2023/05/10 08:17:10;;;;;;;9.57;6.75;;;13.90;99.90;;;;;;4985355;28;20073;-72
2023/05/10 08:19:35;;;;;;;9.73;6.25;;;14.00;99.90;;;;;;4991238;28;20129;-72
2023/05/10 08:22:01;;;;;;;6.50;5.38;;;14.00;99.90;;;;;;4989416;28;20495;-72
2023/05/10 08:24:27;;;;;;;6.63;5.85;;;14.00;99.90;;;;;;5020075;28;20051;-72
2023/05/10 08:26:52;;;;;;;9.25;7.18;;;14.00;99.90;;;;;;5004680;28;20554;-72
2023/05/10 08:29:18;;;;;;;8.65;7.30;;;13.90;99.90;;;;;;4989775;28;20039;-72
2023/05/10 08:31:44;;;;;;;10.45;6.75;;;13.90;99.90;;;;;;4989627;28;20553;-72
2023/05/10 08:34:09;;;;;;;6.85;6.15;;;13.90;99.90;;;;;;4990061;28;20109;-73
2023/05/10 08:36:36;;;;;;;8.80;6.55;;;13.80;99.90;;;;;;5002710;28;20455;-72
2023/05/10 08:39:02;;;;;;;9.20;6.35;;;13.80;99.90;;;;;;5006388;28;20054;-73
2023/05/10 08:41:28;;;;;;;10.32;6.85;;;13.80;99.90;;;;;;4989270;28;20038;-72
2023/05/10 08:43:54;;;;;;;7.95;6.20;;;13.80;99.90;;;;;;5004292;28;20482;-73
2023/05/10 08:46:21;;;;;;;6.38;5.78;;;13.80;99.90;;;;;;4989048;28;20045;-73
2023/05/10 08:48:49;;;;;;;6.88;5.80;;;13.80;99.90;;;;;;4988124;28;20038;-73
2023/05/10 08:51:18;;;;;;;5.72;5.15;;;13.80;99.90;;;;;;4987282;28;20062;-72
2023/05/10 08:53:45;;;;;;;6.25;4.93;;;13.80;99.90;;;;;;4988031;28;20495;-73
2023/05/10 08:56:11;;;;;;;6.43;5.28;;;13.80;99.90;;;;;;5002984;28;20046;-73
2023/05/10 08:58:37;;;;;;;6.03;4.63;;;13.90;99.90;;;;;;4987301;28;20115;-72
2023/05/10 09:01:05;;;;;;;21.23;18.98;;;14.00;99.90;;;;;;4989482;28;20125;-73
2023/05/10 09:03:31;;;;;;;20.40;18.20;;;14.10;99.90;;;;;;4969050;28;20117;-73
2023/05/10 09:05:57;;;;;;;11.98;10.00;;;14.20;99.90;;;;;;4984946;28;20038;-73
2023/05/10 09:08:27;;;;;;;13.10;11.13;;;14.20;99.90;;;;;;4973755;28;20045;-72
2023/05/10 09:10:56;;;;;;;15.70;11.70;;;14.20;99.90;;;;;;4984930;28;20046;-72
2023/05/10 09:13:23;;;;;;;14.60;12.45;;;14.10;99.90;;;;;;4982550;28;20070;-72
2023/05/10 09:15:50;;;;;;;15.50;12.73;;;14.00;99.90;;;;;;4980056;28;20049;-72
2023/05/10 09:18:16;;;;;;;15.27;12.75;;;14.00;99.90;;;;;;4982215;28;20038;-72
2023/05/10 09:20:42;;;;;;;17.10;12.88;;;13.90;99.90;;;;;;4996824;28;20120;-72
2023/05/10 09:23:08;;;;;;;14.70;12.70;;;13.90;99.90;;;;;;4979449;28;20031;-72
2023/05/10 09:25:34;;;;;;;16.23;13.88;;;13.90;99.90;;;;;;5003437;28;20306;-72
2023/05/10 09:28:00;;;;;;;15.23;13.25;;;14.00;99.90;;;;;;4978365;28;20043;-72
2023/05/10 09:30:28;;;;;;;15.13;12.95;;;14.10;99.90;;;;;;4983335;28;20045;-72
2023/05/10 09:32:56;;;;;;;16.58;13.27;;;14.20;99.90;;;;;;4976836;28;20050;-72
2023/05/10 09:35:24;;;;;;;16.10;12.85;;;14.30;99.90;;;;;;4979002;28;20043;-72
2023/05/10 09:37:55;;;;;;;14.52;12.93;;;14.40;99.90;;;;;;4981126;28;20066;-72
2023/05/10 09:40:26;;;;;;;13.30;11.90;;;14.60;99.90;;;;;;4993564;28;20050;-71
2023/05/10 09:43:03;;;;;;;11.82;10.57;;;14.80;99.90;;;;;;4993737;28;20034;-72
2023/05/10 09:45:31;;;;;;;12.70;11.45;;;14.90;99.90;;;;;;4975819;28;20133;-71
2023/05/10 09:47:58;;;;;;;12.52;11.02;;;15.00;99.90;;;;;;4996723;28;20613;-72
2023/05/10 09:50:25;;;;;;;12.32;10.82;;;15.10;99.90;;;;;;4982599;28;20463;-71
2023/05/10 09:52:59;;;;;;;11.32;9.93;;;15.20;99.90;;;;;;4971787;28;20265;-72
2023/05/10 09:55:38;;;;;;;10.40;9.40;;;15.30;99.90;;;;;;4976205;28;20097;-71
2023/05/10 09:58:09;;;;;;;12.23;9.57;;;15.20;99.90;;;;;;4980552;28;20121;-71
2023/05/10 10:00:37;;;;;;;10.00;8.80;;;15.00;99.90;;;;;;4991033;28;20053;-71
2023/05/10 10:03:04;;;;;;;10.02;9.02;;;14.90;99.90;;;;;;4997993;28;20121;-72
2023/05/10 10:05:31;;;;;;;10.13;9.13;;;14.80;99.90;;;;;;4993985;28;20038;-71
2023/05/10 10:07:58;;;;;;;11.55;9.70;;;14.80;99.90;;;;;;4998610;28;20506;-72
2023/05/10 10:10:28;;;;;;;11.82;9.52;;;14.70;99.90;;;;;;4988096;28;20046;-71
2023/05/10 10:12:55;;;;;;;11.25;8.73;;;14.70;99.90;;;;;;5000070;28;20043;-71
2023/05/10 10:15:21;;;;;;;11.32;8.45;;;14.80;99.90;;;;;;4983626;28;20201;-71
2023/05/10 10:17:49;;;;;;;10.20;8.27;;;14.90;99.90;;;;;;4981661;28;20411;-71
2023/05/10 10:20:15;;;;;;;9.85;8.45;;;15.00;99.90;;;;;;4975635;28;20377;-71
2023/05/10 10:22:43;;;;;;;9.05;8.07;;;15.10;99.90;;;;;;4978114;28;20116;-71
2023/05/10 10:25:11;;;;;;;10.40;7.72;;;15.10;99.90;;;;;;4997526;28;20043;-71
2023/05/10 10:27:51;;;;;;;8.50;7.00;;;15.10;99.90;;;;;;4998067;28;20046;-71
2023/05/10 10:30:52;;;;;;;8.30;6.93;;;15.10;99.90;;;;;;5002167;28;20043;-71
2023/05/10 10:33:55;;;;;;;8.18;6.60;;;15.10;99.90;;;;;;4974954;28;20117;-71
2023/05/10 10:36:21;;;;;;;7.40;6.70;;;15.00;99.90;;;;;;4996725;28;20097;-71
2023/05/10 10:38:46;;;;;;;7.35;6.18;;;15.00;99.90;;;;;;4981378;28;20062;-71
2023/05/10 10:41:33;;;;;;;7.10;5.95;;;15.00;99.90;;;;;;4984236;28;20125;-71
2023/05/10 10:44:25;;;;;;;6.13;5.53;;;15.00;99.90;;;;;;4999295;28;20090;-71
2023/05/10 10:47:24;;;;;;;8.27;5.70;;;15.10;99.90;;;;;;4994310;28;20042;-72
2023/05/10 10:50:03;;;;;;;5.63;5.13;;;15.10;99.90;;;;;;4997789;28;20035;-72
2023/05/10 10:52:43;;;;;;;5.97;5.43;;;15.20;99.90;;;;;;4978476;28;20802;-72
2023/05/10 10:55:19;;;;;;;6.30;5.53;;;15.10;99.90;;;;;;5019064;28;20574;-72
2023/05/10 10:58:00;;;;;;;5.72;5.15;;;15.10;99.90;;;;;;4997702;28;20042;-72
2023/05/10 11:00:35;;;;;;;6.65;5.72;;;15.10;99.90;;;;;;4996240;28;20042;-72
2023/05/10 11:03:07;;;;;;;6.18;5.60;;;15.20;99.90;;;;;;5001276;28;20081;-72
2023/05/10 11:05:37;;;;;;;6.50;5.63;;;15.10;99.90;;;;;;5003582;28;20545;-72
2023/05/10 11:08:13;;;;;;;6.95;6.20;;;15.20;99.90;;;;;;4985040;28;20035;-72
2023/05/10 11:10:39;;;;;;;8.05;7.35;;;15.20;99.90;;;;;;4978042;28;20163;-72
2023/05/10 11:13:06;;;;;;;9.00;7.03;;;15.20;99.90;;;;;;4982982;28;20043;-72
2023/05/10 11:15:33;;;;;;;8.35;7.10;;;15.20;99.90;;;;;;4987594;28;20074;-72
2023/05/10 11:17:59;;;;;;;8.25;7.45;;;15.20;99.90;;;;;;4980177;28;21832;-72
2023/05/10 11:20:33;;;;;;;7.78;7.00;;;15.30;99.90;;;;;;4981105;28;20038;-72
2023/05/10 11:23:12;;;;;;;8.55;6.97;;;15.30;99.90;;;;;;4998676;28;20081;-72
2023/05/10 11:25:43;;;;;;;9.02;7.22;;;15.30;99.90;;;;;;4989272;28;20034;-72
2023/05/10 11:28:10;;;;;;;8.07;7.25;;;15.30;99.90;;;;;;4977080;28;20487;-72
2023/05/10 11:30:38;;;;;;;8.45;7.57;;;15.20;99.90;;;;;;4998085;28;20050;-72
2023/05/10 11:33:03;;;;;;;8.38;7.53;;;15.20;99.90;;;;;;4996595;28;20059;-72
2023/05/10 11:35:29;;;;;;;8.75;7.65;;;15.30;99.90;;;;;;4982000;28;20403;-72
2023/05/10 11:37:55;;;;;;;8.82;7.30;;;15.30;99.90;;;;;;4975357;28;20462;-72
2023/05/10 11:40:24;;;;;;;8.75;7.85;;;15.40;99.90;;;;;;4986490;28;20038;-72
2023/05/10 11:42:50;;;;;;;8.25;7.45;;;15.40;99.90;;;;;;4997654;28;20046;-72
2023/05/10 11:45:16;;;;;;;8.50;7.60;;;15.50;99.90;;;;;;4979210;28;20038;-73
2023/05/10 11:47:43;;;;;;;8.43;6.93;;;15.60;99.90;;;;;;4991340;28;20041;-72
2023/05/10 11:50:11;;;;;;;8.35;7.00;;;15.70;99.90;;;;;;4989948;28;20380;-72
2023/05/10 11:52:40;;;;;;;7.88;7.13;;;15.70;99.90;;;;;;4984936;28;20122;-73
2023/05/10 11:55:06;;;;;;;10.40;7.22;;;15.80;99.90;;;;;;4994288;28;20610;-73
2023/05/10 11:57:31;;;;;;;9.43;8.52;;;15.80;99.90;;;;;;4982782;28;20042;-73
2023/05/10 11:59:57;;;;;;;9.88;8.02;;;15.80;99.90;;;;;;4980494;28;20501;-73
2023/05/10 12:02:24;;;;;;;9.75;7.85;;;15.90;99.90;;;;;;4982183;28;20086;-73
2023/05/10 12:04:50;;;;;;;8.55;7.50;;;15.90;99.90;;;;;;4988610;28;20072;-73
2023/05/10 12:07:17;;;;;;;8.25;7.43;;;15.90;99.90;;;;;;5015751;28;20141;-73
2023/05/10 12:10:06;;;;;;;8.35;7.13;;;15.80;99.90;;;;;;4995985;28;20437;-73
2023/05/10 12:12:42;;;;;;;6.35;5.75;;;15.80;99.90;;;;;;5000122;28;20097;-73
2023/05/10 12:15:12;;;;;;;6.43;5.70;;;15.70;99.90;;;;;;4989762;28;20108;-73
2023/05/10 12:17:40;;;;;;;8.95;7.03;;;15.70;99.90;;;;;;5016320;28;20038;-73
2023/05/10 12:20:22;;;;;;;8.65;7.85;;;15.60;99.90;;;;;;4998042;28;20130;-73
2023/05/10 12:22:54;;;;;;;9.60;8.57;;;15.60;99.90;;;;;;5002789;28;20046;-73
2023/05/10 12:25:22;;;;;;;12.65;10.85;;;15.60;99.90;;;;;;4974539;28;20042;-73
2023/05/10 12:28:00;;;;;;;12.45;9.05;;;15.60;99.90;;;;;;5001274;28;20046;-73
2023/05/10 12:30:28;;;;;;;10.82;9.45;;;15.60;99.90;;;;;;4980425;28;20069;-73
2023/05/10 12:32:59;;;;;;;9.60;8.70;;;15.60;99.90;;;;;;5000329;28;20121;-73
2023/05/10 12:35:24;;;;;;;13.85;8.85;;;15.60;99.90;;;;;;4985005;28;20038;-73
2023/05/10 12:37:51;;;;;;;12.13;9.32;;;15.50;99.90;;;;;;5001200;28;20039;-73
2023/05/10 12:40:16;;;;;;;12.43;10.35;;;15.50;99.90;;;;;;4997328;28;20047;-73